sensor_id;sensor_type;location;lat;lon;timestamp;pressure;altitude;pressure_sealevel;temperature;humidity
11190;BME280;5651;50.926;4.718;2022-12-29T00:02:16;100051.22;;;11.53;100.00
11190;BME280;5651;50.926;4.718;2022-12-29T00:04:42;100032.16;;;11.51;100.00
11190;BME280;5651;50.926;4.718;2022-12-29T00:07:08;100041.66;;;11.52;100.00
11190;BME280;5651;50.926;4.718;2022-12-29T00:09:34;100040.78;;;11.53;100.00
11190;BME280;5651;50.926;4.718;2022-12-29T00:12:01;100032.06;;;11.55;100.00
11190;BME280;5651;50.926;4.718;2022-12-29T00:14:27;100022.53;;;11.53;100.00
11190;BME280;5651;50.926;4.718;2022-12-29T00:17:12;99995.59;;;11.52;100.00
11190;BME280;5651;50.926;4.718;2022-12-29T00:19:38;100014.72;;;11.51;100.00
11190;BME280;5651;50.926;4.718;2022-12-29T00:22:23;100000.84;;;11.49;100.00
11190;BME280;5651;50.926;4.718;2022-12-29T00:25:10;99999.97;;;11.50;100.00
11190;BME280;5651;50.926;4.718;2022-12-29T00:27:55;99989.44;;;11.55;100.00
11190;BME280;5651;50.926;4.718;2022-12-29T00:30:39;100005.03;;;11.56;100.00
11190;BME280;5651;50.926;4.718;2022-12-29T00:33:28;99999.81;;;11.56;100.00
11190;BME280;5651;50.926;4.718;2022-12-29T00:36:28;99996.31;;;11.59;100.00
11190;BME280;5651;50.926;4.718;2022-12-29T00:39:10;99989.28;;;11.61;100.00
11190;BME280;5651;50.926;4.718;2022-12-29T00:41:55;99991.91;;;11.61;100.00
11190;BME280;5651;50.926;4.718;2022-12-29T00:44:40;99994.38;;;11.67;100.00
11190;BME280;5651;50.926;4.718;2022-12-29T00:47:05;99986.56;;;11.66;100.00
11190;BME280;5651;50.926;4.718;2022-12-29T00:49:32;99986.53;;;11.67;100.00
11190;BME280;5651;50.926;4.718;2022-12-29T00:51:59;99976.19;;;11.64;100.00
11190;BME280;5651;50.926;4.718;2022-12-29T00:54:27;99990.84;;;11.70;100.00
11190;BME280;5651;50.926;4.718;2022-12-29T00:56:53;99994.31;;;11.70;100.00
11190;BME280;5651;50.926;4.718;2022-12-29T00:59:19;99988.09;;;11.76;100.00
11190;BME280;5651;50.926;4.718;2022-12-29T01:01:48;99976.88;;;11.72;100.00
11190;BME280;5651;50.926;4.718;2022-12-29T01:04:14;99980.28;;;11.74;100.00
11190;BME280;5651;50.926;4.718;2022-12-29T01:06:40;100002.81;;;11.79;100.00
11190;BME280;5651;50.926;4.718;2022-12-29T01:09:07;99980.94;;;11.83;100.00
11190;BME280;5651;50.926;4.718;2022-12-29T01:11:52;99975.03;;;11.76;100.00
11190;BME280;5651;50.926;4.718;2022-12-29T01:14:18;100001.00;;;11.82;100.00
11190;BME280;5651;50.926;4.718;2022-12-29T01:16:49;99972.38;;;11.78;100.00
11190;BME280;5651;50.926;4.718;2022-12-29T01:19:15;99987.06;;;11.83;100.00
11190;BME280;5651;50.926;4.718;2022-12-29T01:21:41;99988.00;;;11.79;100.00
11190;BME280;5651;50.926;4.718;2022-12-29T01:24:08;99972.31;;;11.81;100.00
11190;BME280;5651;50.926;4.718;2022-12-29T01:26:34;99972.53;;;11.71;100.00
11190;BME280;5651;50.926;4.718;2022-12-29T01:29:00;99969.97;;;11.68;100.00
11190;BME280;5651;50.926;4.718;2022-12-29T01:31:25;99993.38;;;11.73;100.00
11190;BME280;5651;50.926;4.718;2022-12-29T01:33:51;99972.59;;;11.68;100.00
11190;BME280;5651;50.926;4.718;2022-12-29T01:36:17;99983.22;;;11.61;100.00
11190;BME280;5651;50.926;4.718;2022-12-29T01:38:44;99993.81;;;11.53;100.00
11190;BME280;5651;50.926;4.718;2022-12-29T01:41:12;99998.25;;;11.51;100.00
11190;BME280;5651;50.926;4.718;2022-12-29T01:43:43;99997.56;;;11.41;100.00
11190;BME280;5651;50.926;4.718;2022-12-29T01:46:31;99993.13;;;11.45;100.00
11190;BME280;5651;50.926;4.718;2022-12-29T01:51:37;99988.16;;;11.34;100.00
11190;BME280;5651;50.926;4.718;2022-12-29T01:54:07;99995.19;;;11.30;100.00
11190;BME280;5651;50.926;4.718;2022-12-29T01:56:33;99984.75;;;11.30;100.00
11190;BME280;5651;50.926;4.718;2022-12-29T01:59:11;99988.47;;;11.18;100.00
11190;BME280;5651;50.926;4.718;2022-12-29T02:01:37;99973.84;;;11.11;100.00
11190;BME280;5651;50.926;4.718;2022-12-29T02:04:03;99979.91;;;11.13;100.00
11190;BME280;5651;50.926;4.718;2022-12-29T02:06:38;99980.13;;;11.02;100.00
11190;BME280;5651;50.926;4.718;2022-12-29T02:09:06;99968.81;;;11.03;100.00
11190;BME280;5651;50.926;4.718;2022-12-29T02:11:34;99959.31;;;11.01;100.00
11190;BME280;5651;50.926;4.718;2022-12-29T02:14:00;99961.19;;;10.94;100.00
11190;BME280;5651;50.926;4.718;2022-12-29T02:22:35;99968.72;;;10.64;100.00
11190;BME280;5651;50.926;4.718;2022-12-29T02:31:02;99980.22;;;10.52;100.00
11190;BME280;5651;50.926;4.718;2022-12-29T02:39:38;99967.31;;;10.46;100.00
11190;BME280;5651;50.926;4.718;2022-12-29T02:47:21;99970.94;;;10.39;100.00
11190;BME280;5651;50.926;4.718;2022-12-29T02:49:59;99958.84;;;10.33;100.00
11190;BME280;5651;50.926;4.718;2022-12-29T02:52:36;99989.13;;;10.42;100.00
11190;BME280;5651;50.926;4.718;2022-12-29T02:55:04;99957.19;;;10.27;100.00
11190;BME280;5651;50.926;4.718;2022-12-29T02:57:35;99954.63;;;10.26;100.00
11190;BME280;5651;50.926;4.718;2022-12-29T03:08:53;99944.56;;;10.06;100.00
11190;BME280;5651;50.926;4.718;2022-12-29T03:11:22;99949.03;;;9.99;100.00
11190;BME280;5651;50.926;4.718;2022-12-29T03:14:25;99949.09;;;9.94;100.00
11190;BME280;5651;50.926;4.718;2022-12-29T03:17:24;99924.03;;;9.89;100.00
11190;BME280;5651;50.926;4.718;2022-12-29T03:19:59;99959.56;;;9.90;100.00
11190;BME280;5651;50.926;4.718;2022-12-29T03:22:29;99968.41;;;9.81;100.00
11190;BME280;5651;50.926;4.718;2022-12-29T03:25:12;99975.22;;;9.87;100.00
11190;BME280;5651;50.926;4.718;2022-12-29T03:27:55;99959.69;;;9.83;100.00
11190;BME280;5651;50.926;4.718;2022-12-29T03:30:23;99970.19;;;9.77;100.00
11190;BME280;5651;50.926;4.718;2022-12-29T03:32:52;99958.16;;;9.68;100.00
11190;BME280;5651;50.926;4.718;2022-12-29T03:35:22;99970.31;;;9.68;100.00
11190;BME280;5651;50.926;4.718;2022-12-29T03:40:18;99959.06;;;9.66;100.00
11190;BME280;5651;50.926;4.718;2022-12-29T03:42:47;99955.63;;;9.64;100.00
11190;BME280;5651;50.926;4.718;2022-12-29T03:45:13;99960.91;;;9.61;100.00
11190;BME280;5651;50.926;4.718;2022-12-29T03:47:39;99986.00;;;9.63;100.00
11190;BME280;5651;50.926;4.718;2022-12-29T03:50:05;99972.13;;;9.64;100.00
11190;BME280;5651;50.926;4.718;2022-12-29T03:52:34;99969.59;;;9.60;100.00
11190;BME280;5651;50.926;4.718;2022-12-29T03:55:00;99975.63;;;9.62;100.00
11190;BME280;5651;50.926;4.718;2022-12-29T03:57:26;99981.63;;;9.67;100.00
11190;BME280;5651;50.926;4.718;2022-12-29T03:59:51;99985.00;;;9.74;100.00
11190;BME280;5651;50.926;4.718;2022-12-29T04:02:17;99973.69;;;9.75;100.00
11190;BME280;5651;50.926;4.718;2022-12-29T04:04:43;99968.56;;;9.70;100.00
11190;BME280;5651;50.926;4.718;2022-12-29T04:07:08;99997.06;;;9.78;100.00
11190;BME280;5651;50.926;4.718;2022-12-29T04:09:34;99981.41;;;9.81;100.00
11190;BME280;5651;50.926;4.718;2022-12-29T04:12:00;99995.22;;;9.83;100.00
11190;BME280;5651;50.926;4.718;2022-12-29T04:14:26;99983.09;;;9.83;100.00
11190;BME280;5651;50.926;4.718;2022-12-29T04:16:51;99995.22;;;9.83;100.00
11190;BME280;5651;50.926;4.718;2022-12-29T04:19:17;99993.53;;;9.80;100.00
11190;BME280;5651;50.926;4.718;2022-12-29T04:21:43;100003.94;;;9.80;100.00
11190;BME280;5651;50.926;4.718;2022-12-29T04:24:09;99990.19;;;9.72;100.00
11190;BME280;5651;50.926;4.718;2022-12-29T04:26:35;99991.03;;;9.74;100.00
11190;BME280;5651;50.926;4.718;2022-12-29T04:29:00;99997.19;;;9.68;100.00
11190;BME280;5651;50.926;4.718;2022-12-29T04:31:26;99980.75;;;9.66;100.00
11190;BME280;5651;50.926;4.718;2022-12-29T04:33:52;99984.25;;;9.64;100.00
11190;BME280;5651;50.926;4.718;2022-12-29T04:36:18;99988.69;;;9.57;100.00
11190;BME280;5651;50.926;4.718;2022-12-29T04:38:44;99991.31;;;9.54;100.00
11190;BME280;5651;50.926;4.718;2022-12-29T04:41:09;100002.59;;;9.53;100.00
11190;BME280;5651;50.926;4.718;2022-12-29T04:43:35;100009.53;;;9.54;100.00
11190;BME280;5651;50.926;4.718;2022-12-29T04:46:01;99993.09;;;9.52;100.00
11190;BME280;5651;50.926;4.718;2022-12-29T04:48:26;100001.69;;;9.56;100.00
11190;BME280;5651;50.926;4.718;2022-12-29T04:50:52;100017.25;;;9.62;100.00
11190;BME280;5651;50.926;4.718;2022-12-29T04:53:18;100019.84;;;9.60;100.00
11190;BME280;5651;50.926;4.718;2022-12-29T04:55:44;100007.72;;;9.59;100.00
11190;BME280;5651;50.926;4.718;2022-12-29T04:58:10;100024.97;;;9.68;100.00
11190;BME280;5651;50.926;4.718;2022-12-29T05:00:36;100024.06;;;9.69;100.00
11190;BME280;5651;50.926;4.718;2022-12-29T05:03:02;100016.19;;;9.75;100.00
11190;BME280;5651;50.926;4.718;2022-12-29T05:05:28;100035.22;;;9.79;100.00
11190;BME280;5651;50.926;4.718;2022-12-29T05:07:54;100013.50;;;9.78;100.00
11190;BME280;5651;50.926;4.718;2022-12-29T05:10:19;100016.06;;;9.85;100.00
11190;BME280;5651;50.926;4.718;2022-12-29T05:12:45;100011.63;;;9.90;100.00
11190;BME280;5651;50.926;4.718;2022-12-29T05:15:11;100017.56;;;9.98;100.00
11190;BME280;5651;50.926;4.718;2022-12-29T05:17:37;100014.09;;;9.97;100.00
11190;BME280;5651;50.926;4.718;2022-12-29T05:20:04;100011.50;;;9.97;100.00
11190;BME280;5651;50.926;4.718;2022-12-29T05:22:30;100009.63;;;10.07;100.00
11190;BME280;5651;50.926;4.718;2022-12-29T05:24:56;100003.66;;;10.01;100.00
11190;BME280;5651;50.926;4.718;2022-12-29T05:27:22;100000.13;;;10.03;100.00
11190;BME280;5651;50.926;4.718;2022-12-29T05:29:48;100024.44;;;10.04;100.00
11190;BME280;5651;50.926;4.718;2022-12-29T05:32:13;100024.47;;;10.01;100.00
11190;BME280;5651;50.926;4.718;2022-12-29T05:34:39;100031.22;;;10.12;100.00
11190;BME280;5651;50.926;4.718;2022-12-29T05:37:05;100015.63;;;10.11;100.00
11190;BME280;5651;50.926;4.718;2022-12-29T05:39:31;100021.63;;;10.16;100.00
11190;BME280;5651;50.926;4.718;2022-12-29T05:41:56;100024.25;;;10.14;100.00
11190;BME280;5651;50.926;4.718;2022-12-29T05:44:23;100028.66;;;10.11;100.00
11190;BME280;5651;50.926;4.718;2022-12-29T05:46:48;100026.78;;;10.18;100.00
11190;BME280;5651;50.926;4.718;2022-12-29T05:49:15;100030.25;;;10.20;100.00
11190;BME280;5651;50.926;4.718;2022-12-29T05:51:41;100025.06;;;10.17;100.00
11190;BME280;5651;50.926;4.718;2022-12-29T05:54:07;100025.88;;;10.20;100.00
11190;BME280;5651;50.926;4.718;2022-12-29T05:56:33;100014.59;;;10.21;100.00
11190;BME280;5651;50.926;4.718;2022-12-29T05:59:00;100030.19;;;10.23;100.00
11190;BME280;5651;50.926;4.718;2022-12-29T06:01:26;100031.91;;;10.24;100.00
11190;BME280;5651;50.926;4.718;2022-12-29T06:03:52;100030.97;;;10.28;100.00
11190;BME280;5651;50.926;4.718;2022-12-29T06:06:18;100038.81;;;10.26;100.00
11190;BME280;5651;50.926;4.718;2022-12-29T06:08:44;100055.28;;;10.27;100.00
11190;BME280;5651;50.926;4.718;2022-12-29T06:11:10;100052.72;;;10.25;100.00
11190;BME280;5651;50.926;4.718;2022-12-29T06:13:36;100059.63;;;10.28;100.00
11190;BME280;5651;50.926;4.718;2022-12-29T06:16:02;100044.91;;;10.25;100.00
11190;BME280;5651;50.926;4.718;2022-12-29T06:18:28;100043.19;;;10.24;100.00
11190;BME280;5651;50.926;4.718;2022-12-29T06:20:54;100062.19;;;10.29;100.00
11190;BME280;5651;50.926;4.718;2022-12-29T06:23:20;100042.31;;;10.24;100.00
11190;BME280;5651;50.926;4.718;2022-12-29T06:25:47;100043.13;;;10.29;100.00
11190;BME280;5651;50.926;4.718;2022-12-29T06:28:13;100052.66;;;10.28;100.00
11190;BME280;5651;50.926;4.718;2022-12-29T06:30:39;100066.53;;;10.29;100.00
11190;BME280;5651;50.926;4.718;2022-12-29T06:33:05;100052.72;;;10.25;100.00
11190;BME280;5651;50.926;4.718;2022-12-29T06:35:33;100067.47;;;10.25;100.00
11190;BME280;5651;50.926;4.718;2022-12-29T06:37:58;100077.06;;;10.23;100.00
11190;BME280;5651;50.926;4.718;2022-12-29T06:40:24;100067.47;;;10.26;99.43
11190;BME280;5651;50.926;4.718;2022-12-29T06:42:50;100070.06;;;10.26;99.77
11190;BME280;5651;50.926;4.718;2022-12-29T06:45:16;100081.38;;;10.24;100.00
11190;BME280;5651;50.926;4.718;2022-12-29T06:47:42;100077.06;;;10.23;100.00
11190;BME280;5651;50.926;4.718;2022-12-29T06:50:08;100097.84;;;10.26;97.57
11190;BME280;5651;50.926;4.718;2022-12-29T06:52:33;100087.47;;;10.21;100.00
11190;BME280;5651;50.926;4.718;2022-12-29T06:54:59;100094.38;;;10.24;99.55
11190;BME280;5651;50.926;4.718;2022-12-29T06:57:25;100089.91;;;10.32;97.36
11190;BME280;5651;50.926;4.718;2022-12-29T06:59:52;100092.53;;;10.32;98.26
11190;BME280;5651;50.926;4.718;2022-12-29T07:02:17;100089.00;;;10.38;97.27
11190;BME280;5651;50.926;4.718;2022-12-29T07:04:44;100091.56;;;10.39;98.52
11190;BME280;5651;50.926;4.718;2022-12-29T07:07:10;100100.19;;;10.44;97.07
11190;BME280;5651;50.926;4.718;2022-12-29T07:09:36;100107.16;;;10.42;99.01
11190;BME280;5651;50.926;4.718;2022-12-29T07:12:02;100118.38;;;10.46;97.23
11190;BME280;5651;50.926;4.718;2022-12-29T07:14:27;100127.00;;;10.50;96.23
11190;BME280;5651;50.926;4.718;2022-12-29T07:16:53;100116.69;;;10.43;96.73
11190;BME280;5651;50.926;4.718;2022-12-29T07:19:19;100128.78;;;10.49;95.54
11190;BME280;5651;50.926;4.718;2022-12-29T07:21:45;100141.81;;;10.46;96.39
11190;BME280;5651;50.926;4.718;2022-12-29T07:24:11;100126.16;;;10.49;95.01
11190;BME280;5651;50.926;4.718;2022-12-29T07:26:37;100142.69;;;10.46;95.17
11190;BME280;5651;50.926;4.718;2022-12-29T07:29:03;100136.63;;;10.46;95.00
11190;BME280;5651;50.926;4.718;2022-12-29T07:31:29;100135.78;;;10.45;95.40
11190;BME280;5651;50.926;4.718;2022-12-29T07:33:55;100150.53;;;10.45;94.28
11190;BME280;5651;50.926;4.718;2022-12-29T07:36:21;100121.81;;;10.50;93.16
11190;BME280;5651;50.926;4.718;2022-12-29T07:38:46;100135.66;;;10.52;93.53
11190;BME280;5651;50.926;4.718;2022-12-29T07:41:12;100127.81;;;10.53;93.89
11190;BME280;5651;50.926;4.718;2022-12-29T07:43:38;100124.31;;;10.56;92.94
11190;BME280;5651;50.926;4.718;2022-12-29T07:46:04;100135.56;;;10.58;92.47
11190;BME280;5651;50.926;4.718;2022-12-29T07:48:29;100131.25;;;10.57;93.10
11190;BME280;5651;50.926;4.718;2022-12-29T07:50:55;100146.88;;;10.57;94.07
11190;BME280;5651;50.926;4.718;2022-12-29T07:53:22;100146.84;;;10.58;94.62
11190;BME280;5651;50.926;4.718;2022-12-29T07:55:48;100147.66;;;10.62;93.75
11190;BME280;5651;50.926;4.718;2022-12-29T07:58:13;100150.25;;;10.62;93.53
11190;BME280;5651;50.926;4.718;2022-12-29T08:00:39;100136.44;;;10.57;94.07
11190;BME280;5651;50.926;4.718;2022-12-29T08:03:05;100150.34;;;10.56;93.63
11190;BME280;5651;50.926;4.718;2022-12-29T08:05:31;100139.94;;;10.57;93.69
11190;BME280;5651;50.926;4.718;2022-12-29T08:07:57;100153.78;;;10.59;94.09
11190;BME280;5651;50.926;4.718;2022-12-29T08:10:23;100160.75;;;10.59;94.23
11190;BME280;5651;50.926;4.718;2022-12-29T08:12:49;100157.25;;;10.58;92.09
11190;BME280;5651;50.926;4.718;2022-12-29T08:15:16;100165.06;;;10.60;92.57
11190;BME280;5651;50.926;4.718;2022-12-29T08:17:42;100170.28;;;10.58;93.58
11190;BME280;5651;50.926;4.718;2022-12-29T08:20:08;100172.88;;;10.60;92.37
11190;BME280;5651;50.926;4.718;2022-12-29T08:22:34;100192.03;;;10.56;93.26
11190;BME280;5651;50.926;4.718;2022-12-29T08:25:00;100175.50;;;10.60;91.84
11190;BME280;5651;50.926;4.718;2022-12-29T08:27:26;100177.22;;;10.59;91.56
11190;BME280;5651;50.926;4.718;2022-12-29T08:29:52;100167.69;;;10.58;91.32
11190;BME280;5651;50.926;4.718;2022-12-29T08:32:18;100165.06;;;10.60;91.36
11190;BME280;5651;50.926;4.718;2022-12-29T08:34:45;100168.59;;;10.57;93.00
11190;BME280;5651;50.926;4.718;2022-12-29T08:37:11;100116.50;;;10.56;92.48
11190;BME280;5651;50.926;4.718;2022-12-29T08:39:37;100187.66;;;10.58;90.14
11190;BME280;5651;50.926;4.718;2022-12-29T08:42:03;100186.91;;;10.51;92.21
11190;BME280;5651;50.926;4.718;2022-12-29T08:44:28;100168.59;;;10.57;92.07
11190;BME280;5651;50.926;4.718;2022-12-29T08:46:54;100178.97;;;10.59;91.23
11190;BME280;5651;50.926;4.718;2022-12-29T08:49:20;100185.97;;;10.54;91.35
11190;BME280;5651;50.926;4.718;2022-12-29T08:51:45;100191.19;;;10.54;91.62
11190;BME280;5651;50.926;4.718;2022-12-29T08:54:11;100175.53;;;10.57;90.79
11190;BME280;5651;50.926;4.718;2022-12-29T08:56:38;100186.78;;;10.59;88.96
11190;BME280;5651;50.926;4.718;2022-12-29T08:59:03;100182.47;;;10.58;89.46
11190;BME280;5651;50.926;4.718;2022-12-29T09:01:29;100193.75;;;10.57;90.30
11190;BME280;5651;50.926;4.718;2022-12-29T09:03:55;100205.88;;;10.59;89.96
11190;BME280;5651;50.926;4.718;2022-12-29T09:06:21;100196.34;;;10.60;90.25
11190;BME280;5651;50.926;4.718;2022-12-29T09:08:47;100211.97;;;10.60;89.52
11190;BME280;5651;50.926;4.718;2022-12-29T09:11:20;100213.69;;;10.61;90.09
11190;BME280;5651;50.926;4.718;2022-12-29T09:13:46;100208.53;;;10.56;90.16
11190;BME280;5651;50.926;4.718;2022-12-29T09:16:12;100219.84;;;10.55;90.12
11190;BME280;5651;50.926;4.718;2022-12-29T09:18:38;100234.59;;;10.56;90.83
11190;BME280;5651;50.926;4.718;2022-12-29T09:21:06;100220.63;;;10.60;89.41
11190;BME280;5651;50.926;4.718;2022-12-29T09:23:32;100191.13;;;10.60;90.71
11190;BME280;5651;50.926;4.718;2022-12-29T09:25:58;100242.25;;;10.66;90.28
11190;BME280;5651;50.926;4.718;2022-12-29T09:28:24;100233.56;;;10.68;89.89
11190;BME280;5651;50.926;4.718;2022-12-29T09:30:50;100269.16;;;10.68;90.50
11190;BME280;5651;50.926;4.718;2022-12-29T09:33:17;100229.22;;;10.67;89.55
11190;BME280;5651;50.926;4.718;2022-12-29T09:35:54;100242.19;;;10.70;89.18
11190;BME280;5651;50.926;4.718;2022-12-29T09:38:20;100242.19;;;10.72;89.75
11190;BME280;5651;50.926;4.718;2022-12-29T09:40:51;100252.53;;;10.75;88.95
11190;BME280;5651;50.926;4.718;2022-12-29T09:48:44;100268.97;;;10.82;89.03
11190;BME280;5651;50.926;4.718;2022-12-29T09:51:15;100282.88;;;10.81;88.54
11190;BME280;5651;50.926;4.718;2022-12-29T09:53:52;100266.31;;;10.83;89.31
11190;BME280;5651;50.926;4.718;2022-12-29T09:56:21;100279.34;;;10.83;88.43
11190;BME280;5651;50.926;4.718;2022-12-29T09:59:15;100287.13;;;10.88;88.86
11190;BME280;5651;50.926;4.718;2022-12-29T10:01:56;100285.31;;;10.91;88.21
11190;BME280;5651;50.926;4.718;2022-12-29T10:04:27;100297.50;;;10.91;87.49
11190;BME280;5651;50.926;4.718;2022-12-29T10:07:02;100308.00;;;10.86;88.13
11190;BME280;5651;50.926;4.718;2022-12-29T10:09:45;100301.03;;;10.87;87.00
11190;BME280;5651;50.926;4.718;2022-12-29T10:15:40;100308.88;;;10.85;87.12
11190;BME280;5651;50.926;4.718;2022-12-29T10:23:45;100325.34;;;10.89;86.56
11190;BME280;5651;50.926;4.718;2022-12-29T10:26:17;100336.63;;;10.88;86.38
11190;BME280;5651;50.926;4.718;2022-12-29T10:28:49;100327.03;;;10.91;85.80
11190;BME280;5651;50.926;4.718;2022-12-29T10:31:20;100323.53;;;10.92;85.64
11190;BME280;5651;50.926;4.718;2022-12-29T10:33:54;100330.53;;;10.89;85.80
11190;BME280;5651;50.926;4.718;2022-12-29T10:36:28;100327.88;;;10.92;85.64
11190;BME280;5651;50.926;4.718;2022-12-29T10:39:21;100327.78;;;11.00;86.26
11190;BME280;5651;50.926;4.718;2022-12-29T10:42:01;100345.13;;;11.02;85.96
11190;BME280;5651;50.926;4.718;2022-12-29T10:44:31;100328.63;;;11.00;86.10
11190;BME280;5651;50.926;4.718;2022-12-29T10:46:59;100342.44;;;11.07;85.13
11190;BME280;5651;50.926;4.718;2022-12-29T10:49:28;100341.59;;;11.06;84.54
11190;BME280;5651;50.926;4.718;2022-12-29T10:51:58;100336.38;;;11.05;85.56
11190;BME280;5651;50.926;4.718;2022-12-29T10:54:56;100343.22;;;11.14;86.06
11190;BME280;5651;50.926;4.718;2022-12-29T10:59:52;100348.50;;;11.07;84.33
11190;BME280;5651;50.926;4.718;2022-12-29T11:02:46;100351.97;;;11.09;84.09
11190;BME280;5651;50.926;4.718;2022-12-29T11:05:34;100367.50;;;11.16;85.52
11190;BME280;5651;50.926;4.718;2022-12-29T11:08:04;100377.06;;;11.17;84.92
11190;BME280;5651;50.926;4.718;2022-12-29T11:13:01;100378.81;;;11.16;84.48
11190;BME280;5651;50.926;4.718;2022-12-29T11:15:39;100371.00;;;11.15;84.12
11190;BME280;5651;50.926;4.718;2022-12-29T11:18:23;100378.75;;;11.21;84.67
11190;BME280;5651;50.926;4.718;2022-12-29T11:20:52;100377.84;;;11.23;84.40
11190;BME280;5651;50.926;4.718;2022-12-29T11:26:23;100384.63;;;11.35;85.60
11190;BME280;5651;50.926;4.718;2022-12-29T11:31:41;100400.09;;;11.45;83.78
11190;BME280;5651;50.926;4.718;2022-12-29T11:34:07;100387.09;;;11.43;83.84
11190;BME280;5651;50.926;4.718;2022-12-29T11:36:34;100393.09;;;11.48;83.23
11190;BME280;5651;50.926;4.718;2022-12-29T11:39:01;100396.47;;;11.55;84.65
11190;BME280;5651;50.926;4.718;2022-12-29T11:41:29;100398.19;;;11.57;84.90
11190;BME280;5651;50.926;4.718;2022-12-29T11:43:59;100401.66;;;11.58;85.84
11190;BME280;5651;50.926;4.718;2022-12-29T11:46:28;100403.19;;;11.71;84.26
11190;BME280;5651;50.926;4.718;2022-12-29T11:48:57;100407.56;;;11.69;84.07
11190;BME280;5651;50.926;4.718;2022-12-29T11:54:13;100433.78;;;11.60;84.72
11190;BME280;5651;50.926;4.718;2022-12-29T11:56:43;100437.44;;;11.50;85.59
11190;BME280;5651;50.926;4.718;2022-12-29T11:59:42;100422.81;;;11.39;86.17
11190;BME280;5651;50.926;4.718;2022-12-29T12:05:43;100433.47;;;11.24;86.24
11190;BME280;5651;50.926;4.718;2022-12-29T12:07:45;100430.97;;;11.16;87.09
11190;BME280;5651;50.926;4.718;2022-12-29T12:10:26;100424.00;;;11.17;87.88
11190;BME280;5651;50.926;4.718;2022-12-29T12:15:47;100409.38;;;11.05;86.84
11190;BME280;5651;50.926;4.718;2022-12-29T12:18:19;100423.34;;;11.02;87.10
11190;BME280;5651;50.926;4.718;2022-12-29T12:21:08;100420.78;;;10.98;86.50
11190;BME280;5651;50.926;4.718;2022-12-29T12:32:17;100421.84;;;10.84;88.89
11190;BME280;5651;50.926;4.718;2022-12-29T12:34:47;100427.06;;;10.81;89.06
11190;BME280;5651;50.926;4.718;2022-12-29T12:48:34;100416.66;;;10.80;89.01
11190;BME280;5651;50.926;4.718;2022-12-29T12:53:59;100443.72;;;10.69;90.62
11190;BME280;5651;50.926;4.718;2022-12-29T12:59:03;100431.47;;;10.79;89.77
11190;BME280;5651;50.926;4.718;2022-12-29T13:01:44;100435.88;;;10.72;90.69
11190;BME280;5651;50.926;4.718;2022-12-29T13:07:01;100431.28;;;10.94;89.85
11190;BME280;5651;50.926;4.718;2022-12-29T13:12:39;100434.69;;;10.97;89.53
11190;BME280;5651;50.926;4.718;2022-12-29T13:17:56;100427.81;;;10.92;88.54
11190;BME280;5651;50.926;4.718;2022-12-29T13:37:09;100452.13;;;10.94;86.72
11190;BME280;5651;50.926;4.718;2022-12-29T13:39:40;100450.25;;;11.03;87.42
11190;BME280;5651;50.926;4.718;2022-12-29T13:42:09;100449.38;;;11.05;86.87
11190;BME280;5651;50.926;4.718;2022-12-29T13:44:51;100469.31;;;11.09;86.36
11190;BME280;5651;50.926;4.718;2022-12-29T13:47:27;100465.91;;;11.03;86.58
11190;BME280;5651;50.926;4.718;2022-12-29T13:49:56;100455.41;;;11.09;85.97
11190;BME280;5651;50.926;4.718;2022-12-29T13:52:37;100469.28;;;11.13;86.69
11190;BME280;5651;50.926;4.718;2022-12-29T13:58:02;100465.78;;;11.14;87.43
11190;BME280;5651;50.926;4.718;2022-12-29T14:00:43;100475.25;;;11.21;87.31
11190;BME280;5651;50.926;4.718;2022-12-29T14:08:46;100459.41;;;11.93;87.38
11190;BME280;5651;50.926;4.718;2022-12-29T14:11:15;100448.63;;;12.14;85.92
11190;BME280;5651;50.926;4.718;2022-12-29T14:13:46;100452.31;;;12.01;85.00
11190;BME280;5651;50.926;4.718;2022-12-29T14:16:29;100455.75;;;12.04;84.24
11190;BME280;5651;50.926;4.718;2022-12-29T14:19:00;100461.09;;;11.97;83.01
11190;BME280;5651;50.926;4.718;2022-12-29T14:21:29;100464.81;;;11.80;83.33
11190;BME280;5651;50.926;4.718;2022-12-29T14:27:42;100470.31;;;11.63;83.74
11190;BME280;5651;50.926;4.718;2022-12-29T14:29:54;100476.59;;;11.50;84.35
11190;BME280;5651;50.926;4.718;2022-12-29T14:34:46;100475.19;;;11.24;85.05
11190;BME280;5651;50.926;4.718;2022-12-29T14:37:27;100484.72;;;11.26;85.10
11190;BME280;5651;50.926;4.718;2022-12-29T14:42:39;100475.63;;;10.90;85.90
11190;BME280;5651;50.926;4.718;2022-12-29T14:45:08;100482.72;;;10.78;86.69
11190;BME280;5651;50.926;4.718;2022-12-29T14:47:50;100480.03;;;10.85;86.27
11190;BME280;5651;50.926;4.718;2022-12-29T14:50:45;100473.31;;;10.65;87.36
11190;BME280;5651;50.926;4.718;2022-12-29T14:56:27;100490.75;;;10.57;87.68
11190;BME280;5651;50.926;4.718;2022-12-29T14:59:02;100495.09;;;10.61;87.46
11190;BME280;5651;50.926;4.718;2022-12-29T15:04:05;100518.56;;;10.56;88.34
11190;BME280;5651;50.926;4.718;2022-12-29T15:06:38;100529.94;;;10.46;89.50
11190;BME280;5651;50.926;4.718;2022-12-29T15:09:17;100521.53;;;10.11;92.99
11190;BME280;5651;50.926;4.718;2022-12-29T15:11:51;100544.09;;;10.15;91.81
11190;BME280;5651;50.926;4.718;2022-12-29T15:16:56;100538.25;;;9.78;93.35
11190;BME280;5651;50.926;4.718;2022-12-29T15:19:23;100544.41;;;9.66;93.82
11190;BME280;5651;50.926;4.718;2022-12-29T15:21:49;100547.84;;;9.73;93.56
11190;BME280;5651;50.926;4.718;2022-12-29T15:24:15;100549.72;;;9.44;95.77
11190;BME280;5651;50.926;4.718;2022-12-29T15:26:47;100566.22;;;9.32;97.28
11190;BME280;5651;50.926;4.718;2022-12-29T15:29:37;100577.47;;;9.38;95.41
11190;BME280;5651;50.926;4.718;2022-12-29T15:32:24;100577.53;;;9.25;97.10
11190;BME280;5651;50.926;4.718;2022-12-29T15:34:55;100574.06;;;9.22;96.72
11190;BME280;5651;50.926;4.718;2022-12-29T15:37:27;100573.25;;;9.07;97.52
11190;BME280;5651;50.926;4.718;2022-12-29T15:39:54;100566.31;;;9.03;97.33
11190;BME280;5651;50.926;4.718;2022-12-29T15:42:38;100569.78;;;9.05;98.29